createdAt,value
2017-05-24T00:01:19.593Z,18.50
2017-05-24T00:03:47.417Z,18.60
2017-05-24T00:06:14.285Z,18.60
2017-05-24T00:08:41.149Z,18.50
2017-05-24T00:11:08.045Z,18.50
2017-05-24T00:13:36.964Z,18.50
2017-05-24T00:16:04.837Z,18.50
2017-05-24T00:18:32.679Z,18.40
2017-05-24T00:21:03.333Z,18.40
2017-05-24T00:23:33.333Z,18.30
2017-05-24T00:26:00.153Z,18.30
2017-05-24T00:28:31.205Z,18.10
2017-05-24T00:31:01.445Z,18.10
2017-05-24T00:33:29.280Z,18.20
2017-05-24T00:35:56.113Z,18.10
2017-05-24T00:38:23.060Z,18.10
2017-05-24T00:40:51.976Z,18.10
2017-05-24T00:43:18.813Z,18.00
2017-05-24T00:45:45.656Z,18.00
2017-05-24T00:48:12.492Z,18.00
2017-05-24T00:50:39.326Z,18.00
2017-05-24T00:53:06.225Z,17.80
2017-05-24T00:55:37.728Z,17.80
2017-05-24T00:58:06.617Z,17.70
2017-05-24T01:00:33.440Z,17.80
2017-05-24T01:03:01.237Z,17.70
2017-05-24T01:05:31.993Z,17.70
2017-05-24T01:07:58.772Z,17.60
2017-05-24T01:10:25.616Z,17.50
2017-05-24T01:12:53.544Z,17.50
2017-05-24T01:15:20.464Z,17.60
2017-05-24T01:17:50.564Z,17.60
2017-05-24T01:20:17.455Z,17.50
2017-05-24T01:22:46.316Z,17.40
2017-05-24T01:25:13.136Z,17.40
2017-05-24T01:27:42.045Z,17.50
2017-05-24T01:30:08.900Z,17.40
2017-05-24T01:32:36.682Z,17.40
2017-05-24T01:35:03.620Z,17.40
2017-05-24T01:37:32.496Z,17.30
2017-05-24T01:39:59.580Z,17.20
2017-05-24T01:42:26.463Z,17.20
2017-05-24T01:44:56.804Z,17.20
2017-05-24T01:47:23.635Z,17.20
2017-05-24T01:49:50.532Z,17.10
2017-05-24T01:52:20.816Z,17.10
2017-05-24T01:54:48.663Z,17.20
2017-05-24T01:57:16.572Z,17.00
2017-05-24T01:59:46.948Z,16.90
2017-05-24T02:02:13.792Z,17.00
2017-05-24T02:04:40.680Z,17.00
2017-05-24T02:07:10.963Z,16.90
2017-05-24T02:09:41.292Z,16.80
2017-05-24T02:12:08.195Z,16.80
2017-05-24T02:14:36.099Z,16.90
2017-05-24T02:17:05.964Z,16.90
2017-05-24T02:19:32.755Z,16.80
2017-05-24T02:21:59.587Z,16.80
2017-05-24T02:24:26.483Z,16.50
2017-05-24T02:26:53.411Z,16.60
2017-05-24T02:29:20.232Z,16.50
2017-05-24T02:31:54.135Z,16.60
2017-05-24T02:34:24.156Z,16.60
2017-05-24T02:36:52.027Z,16.60
2017-05-24T02:39:19.903Z,16.60
2017-05-24T02:41:47.867Z,16.40
2017-05-24T02:44:14.675Z,16.30
2017-05-24T02:46:43.639Z,16.10
2017-05-24T02:49:10.531Z,16.10
2017-05-24T02:51:39.411Z,16.10
2017-05-24T02:54:07.319Z,16.00
2017-05-24T02:56:34.231Z,16.00
2017-05-24T02:59:01.063Z,15.90
2017-05-24T03:01:28.934Z,15.80
2017-05-24T03:03:56.795Z,15.90
2017-05-24T03:06:23.611Z,15.90
2017-05-24T03:08:50.466Z,15.90
2017-05-24T03:11:17.335Z,15.90
2017-05-24T03:13:44.171Z,15.90
2017-05-24T03:16:11.003Z,15.80
2017-05-24T03:18:37.844Z,15.90
2017-05-24T03:21:04.675Z,15.70
2017-05-24T03:23:31.543Z,15.70
2017-05-24T03:25:58.382Z,15.80
2017-05-24T03:28:25.199Z,15.70
2017-05-24T03:30:52.059Z,15.70
2017-05-24T03:33:18.882Z,15.70
2017-05-24T03:35:46.755Z,15.60
2017-05-24T03:38:13.611Z,15.60
2017-05-24T03:40:40.435Z,15.60
2017-05-24T03:43:07.291Z,15.60
2017-05-24T03:45:34.150Z,15.60
2017-05-24T03:48:00.958Z,15.40
2017-05-24T03:50:27.786Z,15.50
2017-05-24T03:52:54.675Z,15.40
2017-05-24T03:55:21.502Z,15.60
2017-05-24T03:57:48.339Z,15.30
2017-05-24T04:00:15.226Z,15.10
2017-05-24T04:02:42.119Z,15.10
2017-05-24T04:05:08.954Z,14.90
2017-05-24T04:07:35.854Z,14.90
2017-05-24T04:10:02.766Z,14.90
2017-05-24T04:12:29.587Z,14.90
2017-05-24T04:14:56.542Z,15.00
2017-05-24T04:17:24.395Z,14.90
2017-05-24T04:19:51.238Z,14.90
2017-05-24T04:22:18.087Z,15.00
2017-05-24T04:24:45.030Z,15.10
2017-05-24T04:27:11.878Z,15.00
2017-05-24T04:29:38.814Z,14.90
2017-05-24T04:32:05.682Z,15.00
2017-05-24T04:34:33.654Z,15.00
2017-05-24T04:37:00.598Z,14.90
2017-05-24T04:39:27.526Z,14.90
2017-05-24T04:41:54.368Z,14.70
2017-05-24T04:44:21.331Z,14.80
2017-05-24T04:46:48.173Z,14.70
2017-05-24T04:49:14.978Z,14.60
2017-05-24T04:51:42.877Z,14.60
2017-05-24T04:54:09.695Z,14.90
2017-05-24T04:56:36.534Z,15.00
2017-05-24T04:59:03.421Z,14.90
2017-05-24T05:01:30.409Z,15.00
2017-05-24T05:03:57.282Z,15.00
2017-05-24T05:06:24.121Z,14.90
2017-05-24T05:08:50.942Z,15.20
2017-05-24T05:11:17.790Z,15.30
2017-05-24T05:13:44.669Z,15.20
2017-05-24T05:16:11.522Z,15.20
2017-05-24T05:18:39.393Z,15.30
2017-05-24T05:21:06.309Z,15.10
2017-05-24T05:23:33.249Z,15.10
2017-05-24T05:26:15.049Z,15.30
2017-05-24T05:28:41.906Z,15.20
2017-05-24T05:31:08.825Z,15.10
2017-05-24T05:33:35.649Z,15.40
2017-05-24T05:36:03.537Z,15.60
2017-05-24T05:38:30.353Z,15.60
2017-05-24T05:40:57.225Z,15.80
2017-05-24T05:43:24.041Z,15.70
2017-05-24T05:45:50.885Z,15.70
2017-05-24T05:48:17.761Z,15.70
2017-05-24T05:50:44.582Z,15.70
2017-05-24T05:53:11.461Z,15.90
2017-05-24T05:55:38.353Z,16.00
2017-05-24T05:58:05.213Z,15.90
2017-05-24T06:00:32.045Z,15.90
2017-05-24T06:02:58.881Z,15.60
2017-05-24T06:05:25.729Z,15.70
2017-05-24T06:07:52.561Z,15.60
2017-05-24T06:10:19.481Z,15.50
2017-05-24T06:12:46.289Z,15.30
2017-05-24T06:15:13.060Z,15.30
2017-05-24T06:17:39.925Z,15.50
2017-05-24T06:20:06.821Z,15.60
2017-05-24T06:22:34.420Z,15.80
2017-05-24T06:25:01.280Z,15.90
2017-05-24T06:27:28.088Z,15.80
2017-05-24T06:29:54.869Z,16.10
2017-05-24T06:32:21.640Z,16.20
2017-05-24T06:34:48.405Z,16.20
2017-05-24T06:37:15.193Z,16.40
2017-05-24T06:39:42.001Z,16.50
2017-05-24T06:42:08.777Z,16.40
2017-05-24T06:44:35.560Z,16.50
2017-05-24T06:47:02.373Z,16.40
2017-05-24T06:49:29.188Z,16.40
2017-05-24T06:51:56.033Z,16.20
2017-05-24T06:54:22.896Z,16.40
2017-05-24T06:56:49.704Z,16.70
2017-05-24T06:59:16.544Z,16.60
2017-05-24T07:01:43.373Z,16.60
2017-05-24T07:04:10.182Z,16.80
2017-05-24T07:06:51.969Z,16.80
2017-05-24T07:09:18.752Z,16.70
2017-05-24T07:11:45.572Z,16.70
2017-05-24T07:14:12.426Z,17.00
2017-05-24T07:16:39.232Z,17.40
2017-05-24T07:19:06.004Z,17.20
2017-05-24T07:21:32.780Z,17.70
2017-05-24T07:23:59.608Z,17.60
2017-05-24T07:26:26.369Z,17.70
2017-05-24T07:28:53.189Z,17.40
2017-05-24T07:31:19.944Z,17.60
2017-05-24T07:33:46.769Z,17.70
2017-05-24T07:36:13.611Z,17.70
2017-05-24T07:38:40.396Z,17.80
2017-05-24T07:41:07.172Z,17.80
2017-05-24T07:43:33.975Z,17.50
2017-05-24T07:46:00.758Z,17.60
2017-05-24T07:48:27.535Z,17.80
2017-05-24T07:50:54.575Z,17.80
2017-05-24T07:53:21.352Z,17.70
2017-05-24T07:55:48.128Z,17.60
2017-05-24T07:58:14.932Z,17.30
2017-05-24T08:00:41.699Z,17.40
2017-05-24T08:03:08.499Z,17.30
2017-05-24T08:05:35.311Z,17.30
2017-05-24T08:08:02.104Z,17.40
2017-05-24T08:10:28.872Z,17.50
2017-05-24T08:12:55.671Z,17.40
2017-05-24T08:15:22.447Z,17.40
2017-05-24T08:17:49.223Z,17.70
2017-05-24T08:20:16.019Z,17.60
2017-05-24T08:22:42.783Z,18.00
2017-05-24T08:25:09.574Z,17.80
2017-05-24T08:27:36.406Z,17.70
2017-05-24T08:30:03.191Z,17.80
2017-05-24T08:32:29.967Z,17.80
2017-05-24T08:34:56.743Z,17.70
2017-05-24T08:37:23.538Z,17.80
2017-05-24T08:39:50.378Z,18.10
2017-05-24T08:55:09.753Z,18.70
2017-05-24T08:57:38.519Z,18.60
2017-05-24T09:00:07.279Z,18.70
2017-05-24T09:02:36.068Z,18.60
2017-05-24T09:05:04.849Z,18.70
2017-05-24T09:07:33.607Z,18.80
2017-05-24T09:10:02.383Z,19.10
2017-05-24T09:12:31.142Z,19.20
2017-05-24T09:14:59.907Z,19.40
2017-05-24T09:17:28.710Z,19.40
2017-05-24T09:19:57.471Z,19.50
2017-05-24T09:22:26.242Z,19.60
2017-05-24T09:24:55.127Z,19.90
2017-05-24T09:27:23.862Z,20.10
2017-05-24T09:29:53.571Z,20.00
2017-05-24T09:32:22.350Z,19.90
2017-05-24T09:34:51.119Z,19.80
2017-05-24T09:37:19.878Z,19.50
2017-05-24T09:39:48.694Z,19.60
2017-05-24T09:42:17.466Z,19.90
2017-05-24T09:44:46.222Z,19.90
2017-05-24T09:47:15.030Z,19.40
2017-05-24T09:49:43.792Z,19.60
2017-05-24T09:52:12.543Z,19.90
2017-05-24T09:54:41.314Z,19.70
2017-05-24T09:57:10.082Z,20.00
2017-05-24T09:59:38.846Z,19.70
2017-05-24T10:02:07.638Z,20.00
2017-05-24T10:04:36.406Z,20.10
2017-05-24T10:07:05.170Z,20.40
2017-05-24T10:09:33.948Z,20.40
2017-05-24T10:12:02.718Z,20.40
2017-05-24T10:14:31.482Z,20.00
2017-05-24T10:17:00.282Z,20.00
2017-05-24T10:19:29.058Z,19.50
2017-05-24T10:21:57.850Z,19.60
2017-05-24T10:24:26.625Z,19.70
2017-05-24T10:26:55.417Z,20.00
2017-05-24T10:29:24.202Z,19.90
2017-05-24T10:31:52.969Z,20.00
2017-05-24T10:34:21.727Z,20.00
2017-05-24T10:36:50.493Z,20.30
2017-05-24T10:39:19.359Z,20.60
2017-05-24T10:41:53.822Z,20.60
2017-05-24T10:44:22.569Z,20.50
2017-05-24T10:46:51.330Z,20.20
2017-05-24T10:49:20.094Z,20.20
2017-05-24T10:51:48.881Z,20.20
2017-05-24T10:54:17.654Z,20.40
2017-05-24T10:56:46.429Z,20.50
2017-05-24T10:59:15.197Z,20.40
2017-05-24T11:01:43.969Z,19.90
2017-05-24T11:04:12.737Z,20.00
2017-05-24T11:06:41.525Z,20.40
2017-05-24T11:09:10.286Z,20.20
2017-05-24T11:11:39.057Z,20.60
2017-05-24T11:14:07.861Z,20.10
2017-05-24T11:16:36.677Z,20.50
2017-05-24T11:19:05.443Z,20.80
2017-05-24T11:21:34.228Z,20.50
2017-05-24T11:24:03.005Z,20.20
2017-05-24T11:26:31.781Z,20.10
2017-05-24T11:29:00.576Z,20.00
2017-05-24T11:31:29.648Z,20.00
2017-05-24T11:33:58.408Z,20.10
2017-05-24T11:36:27.189Z,19.70
2017-05-24T11:38:55.953Z,19.80
2017-05-24T11:41:24.745Z,20.20
2017-05-24T11:43:53.533Z,20.40
2017-05-24T11:46:22.300Z,20.30
2017-05-24T11:48:51.073Z,20.20
2017-05-24T11:51:19.853Z,20.30
2017-05-24T11:53:48.613Z,19.80
2017-05-24T11:56:17.381Z,19.70
2017-05-24T11:58:46.179Z,19.60
2017-05-24T12:01:14.945Z,19.40
2017-05-24T12:03:43.712Z,19.30
2017-05-24T12:06:12.512Z,19.30
2017-05-24T12:08:41.285Z,19.30
2017-05-24T12:11:10.060Z,19.20
2017-05-24T12:13:38.852Z,19.30
2017-05-24T12:16:07.648Z,19.20
2017-05-24T12:18:36.452Z,19.20
2017-05-24T12:21:05.240Z,19.10
2017-05-24T12:23:34.013Z,18.90
2017-05-24T12:26:02.784Z,18.80
2017-05-24T12:28:31.576Z,18.80
2017-05-24T12:31:00.348Z,18.60
2017-05-24T12:33:29.124Z,18.40
2017-05-24T12:35:57.900Z,18.40
2017-05-24T12:38:26.672Z,18.60
2017-05-24T12:40:55.436Z,18.60
2017-05-24T12:43:24.221Z,18.70
2017-05-24T12:45:53.000Z,18.60
2017-05-24T12:48:21.760Z,18.70
2017-05-24T12:50:50.548Z,18.90
2017-05-24T12:53:19.312Z,18.50
2017-05-24T12:55:48.088Z,18.40
2017-05-24T12:58:16.868Z,18.50
2017-05-24T13:00:45.635Z,18.30
2017-05-24T13:03:14.408Z,18.50
2017-05-24T13:05:43.192Z,18.70
2017-05-24T13:08:11.980Z,18.40
2017-05-24T13:10:40.755Z,18.60
2017-05-24T13:13:09.539Z,18.50
2017-05-24T13:15:38.319Z,18.30
2017-05-24T13:18:07.099Z,18.20
2017-05-24T13:20:35.883Z,18.20
2017-05-24T13:23:04.655Z,18.10
2017-05-24T13:25:33.419Z,18.00
2017-05-24T13:28:02.207Z,17.90
2017-05-24T13:30:30.987Z,17.80
2017-05-24T13:32:59.760Z,18.10
2017-05-24T13:35:28.535Z,17.80
2017-05-24T13:37:57.400Z,18.30
2017-05-24T13:40:26.131Z,18.20
2017-05-24T13:42:54.911Z,18.30
2017-05-24T13:45:23.675Z,18.40
2017-05-24T13:47:52.435Z,18.30
2017-05-24T13:50:21.214Z,18.60
2017-05-24T13:52:49.987Z,18.60
2017-05-24T13:55:18.751Z,18.40
2017-05-24T13:57:47.527Z,18.70
2017-05-24T14:00:16.291Z,18.90
2017-05-24T14:02:45.058Z,18.90
2017-05-24T14:05:13.827Z,18.70
2017-05-24T14:07:42.600Z,18.70
2017-05-24T14:10:11.387Z,18.60
2017-05-24T14:12:40.155Z,18.70
2017-05-24T14:15:08.919Z,18.40
2017-05-24T14:17:37.700Z,18.40
2017-05-24T14:20:06.458Z,18.60
2017-05-24T14:22:35.219Z,18.50
2017-05-24T14:25:03.995Z,18.50
2017-05-24T14:27:32.843Z,18.60
2017-05-24T14:30:01.583Z,18.40
2017-05-24T14:32:30.347Z,18.40
2017-05-24T14:34:59.123Z,18.30
2017-05-24T14:37:27.891Z,18.60
2017-05-24T14:39:56.655Z,18.50
2017-05-24T14:42:25.430Z,18.50
2017-05-24T14:44:54.195Z,18.60
2017-05-24T14:47:23.038Z,18.60
2017-05-24T14:49:51.826Z,18.40
2017-05-24T14:52:20.570Z,18.30
2017-05-24T14:54:49.351Z,18.20
2017-05-24T14:57:18.160Z,18.30
2017-05-24T14:59:46.926Z,18.20
2017-05-24T15:02:15.695Z,18.10
2017-05-24T15:04:44.485Z,18.30
2017-05-24T15:07:13.255Z,18.30
2017-05-24T15:09:42.018Z,18.10
2017-05-24T15:12:10.787Z,18.00
2017-05-24T15:14:39.550Z,18.00
2017-05-24T15:17:08.319Z,18.00
2017-05-24T15:19:37.102Z,18.00
2017-05-24T15:22:05.939Z,18.10
2017-05-24T15:24:34.633Z,18.10
2017-05-24T15:27:03.413Z,18.00
2017-05-24T15:29:32.183Z,18.20
2017-05-24T15:32:00.954Z,18.10
2017-05-24T15:34:29.726Z,18.10
2017-05-24T15:36:59.386Z,18.00
2017-05-24T15:39:28.158Z,18.20
2017-05-24T15:41:56.950Z,18.20
2017-05-24T15:44:25.718Z,18.20
2017-05-24T15:46:54.486Z,18.20
2017-05-24T15:49:23.275Z,18.10
2017-05-24T15:51:52.042Z,18.00
2017-05-24T15:54:20.803Z,17.90
2017-05-24T15:56:49.578Z,17.90
2017-05-24T15:59:18.346Z,18.00
2017-05-24T16:01:47.114Z,18.00
2017-05-24T16:04:15.898Z,18.00
2017-05-24T16:06:44.661Z,18.00
2017-05-24T16:09:13.434Z,17.90
2017-05-24T16:11:42.337Z,17.90
2017-05-24T16:14:11.101Z,18.00
2017-05-24T16:16:39.882Z,17.90
2017-05-24T16:19:08.693Z,17.80
2017-05-24T16:21:37.461Z,17.70
2017-05-24T16:24:06.225Z,17.60
2017-05-24T16:26:35.013Z,17.70
2017-05-24T16:29:03.777Z,17.60
2017-05-24T16:31:32.545Z,17.70
2017-05-24T16:34:01.322Z,17.80
2017-05-24T16:36:30.089Z,17.70
2017-05-24T16:38:58.857Z,17.90
2017-05-24T16:41:27.634Z,17.90
2017-05-24T16:43:56.398Z,17.90
2017-05-24T16:46:25.164Z,18.00
2017-05-24T16:48:54.929Z,18.00
2017-05-24T16:51:23.697Z,18.00
2017-05-24T16:53:52.465Z,18.10
2017-05-24T16:56:21.241Z,17.90
2017-05-24T16:58:50.010Z,18.00
2017-05-24T17:01:18.798Z,17.90
2017-05-24T17:03:47.573Z,17.80
2017-05-24T17:06:16.341Z,18.00
2017-05-24T17:08:45.146Z,18.00
2017-05-24T17:11:13.929Z,17.90
2017-05-24T17:13:42.700Z,17.80
2017-05-24T17:16:11.477Z,17.80
2017-05-24T17:18:40.257Z,17.70
2017-05-24T17:21:09.024Z,17.80
2017-05-24T17:23:37.816Z,17.80
2017-05-24T17:26:06.608Z,17.50
2017-05-24T17:28:35.357Z,17.50
2017-05-24T17:31:04.124Z,17.60
2017-05-24T17:33:32.920Z,17.50
2017-05-24T17:36:01.688Z,17.40
2017-05-24T17:38:30.465Z,16.90
2017-05-24T17:41:01.212Z,17.00
2017-05-24T17:43:29.992Z,16.70
2017-05-24T17:45:58.757Z,16.80
2017-05-24T17:48:27.540Z,16.70
2017-05-24T17:50:57.268Z,16.80
2017-05-24T17:53:26.041Z,16.90
2017-05-24T17:55:54.820Z,16.90
2017-05-24T18:01:01.652Z,16.90
2017-05-24T18:03:30.421Z,16.80
2017-05-24T18:06:00.140Z,16.80
2017-05-24T18:08:28.960Z,16.70
2017-05-24T18:10:57.728Z,16.90
2017-05-24T18:13:26.499Z,16.70
2017-05-24T18:15:55.340Z,16.80
2017-05-24T18:18:24.108Z,16.80
2017-05-24T18:20:52.875Z,16.70
2017-05-24T18:23:20.912Z,16.70
2017-05-24T18:25:49.680Z,16.50
2017-05-24T18:28:18.460Z,16.60
2017-05-24T18:30:47.260Z,16.50
2017-05-24T18:33:16.047Z,16.50
2017-05-24T18:35:44.828Z,16.30
2017-05-24T18:38:13.631Z,16.40
2017-05-24T18:40:42.418Z,16.30
2017-05-24T18:43:11.189Z,16.30
2017-05-24T18:45:39.988Z,16.50
2017-05-24T18:48:08.771Z,16.50
2017-05-24T18:50:37.843Z,16.60
2017-05-24T18:53:07.140Z,16.40
2017-05-24T18:55:35.883Z,16.00
2017-05-24T18:58:04.668Z,15.90
2017-05-24T19:00:33.455Z,16.10
2017-05-24T19:03:02.228Z,15.90
2017-05-24T19:05:31.000Z,16.00
2017-05-24T19:08:00.327Z,15.90
2017-05-24T19:10:29.131Z,15.80
2017-05-24T19:12:57.920Z,15.60
2017-05-24T19:15:26.747Z,15.60
2017-05-24T19:17:54.760Z,15.50
2017-05-24T19:20:23.539Z,15.40
2017-05-24T19:22:52.345Z,15.50
2017-05-24T19:25:21.123Z,15.30
2017-05-24T19:27:49.908Z,15.20
2017-05-24T19:30:19.607Z,15.30
2017-05-24T19:32:48.390Z,15.30
2017-05-24T19:35:17.187Z,15.10
2017-05-24T19:37:45.983Z,15.10
2017-05-24T19:40:14.759Z,15.00
2017-05-24T19:42:43.551Z,15.00
2017-05-24T19:45:12.335Z,15.10
2017-05-24T19:47:41.115Z,15.20
2017-05-24T19:50:09.884Z,15.00
2017-05-24T19:52:38.675Z,15.00
2017-05-24T19:55:07.454Z,14.80
2017-05-24T19:57:36.251Z,14.70
2017-05-24T20:00:05.047Z,14.80
2017-05-24T20:02:33.827Z,14.80
2017-05-24T20:05:02.618Z,14.70
2017-05-24T20:07:31.418Z,14.70
2017-05-24T20:10:00.194Z,14.60
2017-05-24T20:12:28.986Z,14.60
2017-05-24T20:14:57.790Z,14.60
2017-05-24T20:17:26.570Z,14.60
2017-05-24T20:19:55.348Z,14.60
2017-05-24T20:22:24.130Z,14.70
2017-05-24T20:24:52.910Z,14.80
2017-05-24T20:27:21.711Z,14.70
2017-05-24T20:29:50.526Z,14.80
2017-05-24T20:32:19.306Z,14.80
2017-05-24T20:34:48.102Z,14.70
2017-05-24T20:37:16.890Z,14.60
2017-05-24T20:39:45.674Z,14.70
2017-05-24T20:42:14.462Z,14.60
2017-05-24T20:44:44.154Z,14.70
2017-05-24T20:47:12.947Z,14.70
2017-05-24T20:49:41.734Z,14.80
2017-05-24T20:52:10.525Z,14.70
2017-05-24T20:54:39.302Z,14.70
2017-05-24T20:57:08.129Z,14.70
2017-05-24T20:59:36.895Z,14.60
2017-05-24T21:02:05.670Z,14.40
2017-05-24T21:04:34.462Z,14.50
2017-05-24T21:07:03.247Z,14.60
2017-05-24T21:09:32.035Z,14.60
2017-05-24T21:12:00.817Z,14.60
2017-05-24T21:14:29.606Z,14.60
2017-05-24T21:16:58.390Z,14.50
2017-05-24T21:19:27.166Z,14.80
2017-05-24T21:21:55.986Z,14.90
2017-05-24T21:24:24.782Z,14.80
2017-05-24T21:26:53.577Z,14.90
2017-05-24T21:29:22.378Z,14.90
2017-05-24T21:31:52.157Z,14.90
2017-05-24T21:34:20.951Z,14.80
2017-05-24T21:36:50.473Z,14.80
2017-05-24T21:39:19.266Z,14.60
2017-05-24T21:41:48.089Z,14.50
2017-05-24T21:44:17.066Z,14.40
2017-05-24T21:46:45.969Z,14.30
2017-05-24T21:49:14.845Z,14.10
2017-05-24T21:51:43.709Z,14.10
2017-05-24T21:54:12.618Z,14.10
2017-05-24T21:56:41.477Z,14.10
2017-05-24T21:59:10.345Z,14.10
2017-05-24T22:01:39.152Z,14.10
2017-05-24T22:04:07.953Z,14.20
2017-05-24T22:06:36.921Z,14.20
2017-05-24T22:09:05.776Z,14.20
2017-05-24T22:11:34.601Z,14.20
2017-05-24T22:14:04.429Z,14.10
2017-05-24T22:16:33.277Z,14.10
2017-05-24T22:19:02.089Z,14.10
2017-05-24T22:21:30.997Z,14.00
2017-05-24T22:23:59.793Z,14.00
2017-05-24T22:26:28.586Z,13.60
2017-05-24T22:28:57.433Z,13.50
2017-05-24T22:31:27.229Z,13.40
2017-05-24T22:33:56.962Z,13.50
2017-05-24T22:36:25.750Z,13.60
2017-05-24T22:38:54.584Z,13.60
2017-05-24T22:41:23.510Z,13.50
2017-05-24T22:43:52.337Z,13.50
2017-05-24T22:46:21.145Z,13.40
2017-05-24T22:48:50.028Z,13.40
2017-05-24T22:51:18.104Z,13.30
2017-05-24T22:53:46.925Z,13.10
2017-05-24T22:56:15.784Z,13.20
2017-05-24T22:58:44.605Z,13.20
2017-05-24T23:01:13.472Z,13.20
2017-05-24T23:03:42.317Z,13.20
2017-05-24T23:06:11.128Z,13.20
2017-05-24T23:08:39.925Z,13.10
2017-05-24T23:11:08.801Z,13.10
2017-05-24T23:13:36.860Z,13.10
2017-05-24T23:16:05.740Z,12.80
2017-05-24T23:18:34.567Z,12.30
2017-05-24T23:21:03.396Z,11.90
2017-05-24T23:23:32.240Z,12.20
2017-05-24T23:26:01.024Z,12.30
2017-05-24T23:28:29.852Z,12.40
2017-05-24T23:30:58.657Z,12.50
2017-05-24T23:33:27.555Z,12.50
2017-05-24T23:35:56.356Z,12.50
2017-05-24T23:38:25.240Z,12.40
2017-05-24T23:40:54.092Z,12.20
2017-05-24T23:43:22.948Z,12.20
2017-05-24T23:45:51.892Z,12.20
2017-05-24T23:48:21.127Z,12.30
2017-05-24T23:50:49.204Z,12.30
2017-05-24T23:53:18.038Z,12.20
2017-05-24T23:55:46.967Z,12.30
2017-05-24T23:58:15.760Z,12.20
